createdAt,value
2023-03-24T00:00:51.455Z,7.23
2023-03-24T00:03:20.147Z,7.43
2023-03-24T00:05:59.370Z,6.45
2023-03-24T00:08:31.008Z,6.63
2023-03-24T00:11:02.731Z,6.10
2023-03-24T00:13:33.044Z,6.07
2023-03-24T00:16:02.643Z,6.75
2023-03-24T00:18:33.215Z,6.63
2023-03-24T00:21:01.713Z,6.45
2023-03-24T00:23:33.395Z,6.20
2023-03-24T00:26:07.267Z,7.00
2023-03-24T00:28:37.094Z,4.90
2023-03-24T00:31:06.744Z,6.70
2023-03-24T00:33:35.325Z,6.85
2023-03-24T00:36:05.803Z,6.22
2023-03-24T00:38:37.448Z,6.20
2023-03-24T00:41:07.893Z,6.50
2023-03-24T00:43:35.912Z,6.57
2023-03-24T00:46:09.335Z,6.53
2023-03-24T00:48:38.587Z,6.70
2023-03-24T00:51:11.268Z,6.75
2023-03-24T00:56:12.084Z,5.82
2023-03-24T00:58:39.376Z,6.30
2023-03-24T01:01:07.366Z,6.68
2023-03-24T01:03:35.520Z,6.45
2023-03-24T01:06:05.315Z,5.93
2023-03-24T01:08:32.857Z,5.88
2023-03-24T01:11:01.585Z,6.13
2023-03-24T01:13:30.024Z,6.68
2023-03-24T01:15:58.760Z,5.53
2023-03-24T01:18:28.141Z,6.43
2023-03-24T01:20:55.751Z,5.45
2023-03-24T01:23:26.154Z,6.03
2023-03-24T01:25:54.732Z,5.03
2023-03-24T01:28:25.264Z,7.15
2023-03-24T01:30:55.561Z,6.40
2023-03-24T01:33:23.148Z,6.55
2023-03-24T01:35:51.003Z,5.72
2023-03-24T01:38:18.862Z,6.13
2023-03-24T01:40:47.529Z,6.57
2023-03-24T01:43:23.245Z,6.13
2023-03-24T01:46:21.655Z,5.82
2023-03-24T01:48:56.954Z,5.93
2023-03-24T01:51:44.109Z,5.60
2023-03-24T01:54:17.826Z,5.75
2023-03-24T01:56:50.884Z,5.75
2023-03-24T01:59:27.690Z,5.63
2023-03-24T02:02:15.125Z,6.18
2023-03-24T02:05:05.013Z,6.40
2023-03-24T02:08:04.909Z,5.82
2023-03-24T02:10:35.641Z,6.57
2023-03-24T02:13:04.856Z,6.13
2023-03-24T02:15:35.784Z,5.75
2023-03-24T02:18:03.261Z,6.35
2023-03-24T02:20:59.110Z,4.43
2023-03-24T02:23:44.660Z,6.13
2023-03-24T02:26:14.717Z,5.95
2023-03-24T02:29:23.727Z,6.32
2023-03-24T02:32:35.554Z,5.88
2023-03-24T02:35:34.487Z,5.90
2023-03-24T02:38:07.839Z,5.35
2023-03-24T02:40:36.708Z,5.78
2023-03-24T02:43:17.484Z,5.82
2023-03-24T02:45:52.817Z,5.75
2023-03-24T02:48:23.699Z,5.45
2023-03-24T02:50:55.046Z,4.82
2023-03-24T02:53:51.114Z,5.72
2023-03-24T02:56:56.229Z,5.18
2023-03-24T03:00:00.599Z,5.95
2023-03-24T03:03:07.748Z,5.78
2023-03-24T03:05:41.150Z,5.18
2023-03-24T03:08:12.942Z,5.47
2023-03-24T03:10:47.427Z,5.43
2023-03-24T03:13:31.276Z,5.57
2023-03-24T03:16:03.361Z,5.75
2023-03-24T03:18:57.516Z,5.38
2023-03-24T03:21:28.595Z,5.72
2023-03-24T03:24:04.374Z,5.60
2023-03-24T03:26:33.506Z,5.50
2023-03-24T03:29:09.493Z,6.20
2023-03-24T03:31:44.422Z,5.72
2023-03-24T03:34:38.034Z,6.70
2023-03-24T03:37:08.749Z,6.55
2023-03-24T03:39:45.694Z,6.43
2023-03-24T03:42:15.067Z,6.35
2023-03-24T03:44:42.870Z,6.05
2023-03-24T03:47:10.486Z,5.97
2023-03-24T03:49:44.716Z,6.78
2023-03-24T03:52:13.889Z,7.10
2023-03-24T03:54:43.702Z,6.57
2023-03-24T03:57:13.616Z,6.38
2023-03-24T04:00:16.674Z,6.07
2023-03-24T04:03:33.500Z,6.30
2023-03-24T04:06:25.568Z,6.60
2023-03-24T04:09:19.677Z,5.83
2023-03-24T04:11:53.662Z,6.88
2023-03-24T04:14:57.302Z,6.28
2023-03-24T04:18:14.812Z,6.03
2023-03-24T04:21:02.515Z,6.07
2023-03-24T04:23:50.814Z,6.10
2023-03-24T04:26:26.342Z,6.95
2023-03-24T04:29:05.338Z,6.13
2023-03-24T04:31:38.690Z,6.32
2023-03-24T04:34:31.258Z,5.70
2023-03-24T04:37:33.162Z,5.80
2023-03-24T04:40:11.224Z,5.85
2023-03-24T04:42:45.711Z,6.70
2023-03-24T04:45:15.170Z,6.05
2023-03-24T04:48:13.721Z,6.63
2023-03-24T04:50:58.044Z,5.57
2023-03-24T04:53:29.679Z,5.95
2023-03-24T04:56:27.865Z,5.90
2023-03-24T04:59:21.694Z,5.25
2023-03-24T05:01:52.087Z,5.63
2023-03-24T05:04:40.438Z,5.43
2023-03-24T05:07:37.123Z,5.25
2023-03-24T05:10:09.870Z,5.60
2023-03-24T05:12:45.262Z,5.60
2023-03-24T05:15:41.508Z,5.13
2023-03-24T05:18:29.109Z,5.35
2023-03-24T05:20:57.848Z,4.53
2023-03-24T05:23:26.237Z,5.05
2023-03-24T05:25:55.568Z,5.38
2023-03-24T05:28:25.186Z,5.55
2023-03-24T05:30:55.152Z,5.25
2023-03-24T05:34:01.283Z,4.95
2023-03-24T05:36:30.026Z,5.72
2023-03-24T05:38:59.836Z,4.82
2023-03-24T05:41:38.730Z,5.13
2023-03-24T05:44:06.538Z,5.15
2023-03-24T05:46:33.974Z,5.18
2023-03-24T05:49:04.733Z,5.35
2023-03-24T05:51:35.702Z,5.40
2023-03-24T05:54:06.568Z,4.75
2023-03-24T05:56:43.342Z,5.50
2023-03-24T05:59:34.452Z,5.45
2023-03-24T06:02:28.199Z,5.15
2023-03-24T06:05:02.039Z,4.88
2023-03-24T06:07:31.028Z,5.25
2023-03-24T06:10:03.354Z,4.47
2023-03-24T06:12:39.724Z,4.88
2023-03-24T06:15:08.871Z,4.90
2023-03-24T06:17:37.924Z,5.50
2023-03-24T06:20:16.156Z,5.32
2023-03-24T06:23:00.035Z,4.97
2023-03-24T06:25:36.537Z,5.00
2023-03-24T06:28:15.556Z,5.63
2023-03-24T06:30:46.934Z,5.07
2023-03-24T06:33:22.551Z,5.03
2023-03-24T06:35:54.557Z,5.13
2023-03-24T06:38:22.705Z,5.30
2023-03-24T06:40:50.193Z,5.63
2023-03-24T06:43:17.833Z,5.38
2023-03-24T06:45:46.784Z,5.30
2023-03-24T06:48:22.055Z,4.53
2023-03-24T06:50:52.377Z,5.32
2023-03-24T06:53:22.246Z,5.18
2023-03-24T06:55:51.264Z,4.85
2023-03-24T06:58:20.877Z,6.25
2023-03-24T07:01:18.120Z,5.40
2023-03-24T07:04:08.810Z,4.80
2023-03-24T07:07:12.475Z,3.80
2023-03-24T07:09:48.733Z,4.50
2023-03-24T07:12:16.186Z,4.93
2023-03-24T07:14:44.138Z,5.03
2023-03-24T07:17:13.166Z,5.35
2023-03-24T07:19:58.483Z,4.85
2023-03-24T07:22:45.748Z,4.90
2023-03-24T07:25:31.106Z,5.65
2023-03-24T07:28:16.036Z,4.72
2023-03-24T07:30:43.702Z,4.47
2023-03-24T07:33:12.929Z,4.85
2023-03-24T07:35:45.148Z,4.28
2023-03-24T07:38:12.740Z,4.80
2023-03-24T07:40:40.484Z,4.75
2023-03-24T07:43:08.230Z,4.70
2023-03-24T07:45:47.930Z,4.50
2023-03-24T07:48:16.553Z,5.05
2023-03-24T07:50:44.863Z,4.47
2023-03-24T07:53:35.599Z,4.55
2023-03-24T07:56:03.704Z,5.65
2023-03-24T07:58:31.808Z,4.93
2023-03-24T08:01:19.291Z,4.50
2023-03-24T08:03:55.209Z,4.65
2023-03-24T08:09:14.939Z,3.47
2023-03-24T08:11:42.410Z,4.97
2023-03-24T08:14:13.056Z,5.15
2023-03-24T08:16:40.518Z,4.97
2023-03-24T08:19:08.518Z,3.72
2023-03-24T08:21:37.310Z,4.80
2023-03-24T08:24:07.078Z,4.75
2023-03-24T08:26:35.628Z,4.45
2023-03-24T08:29:04.018Z,4.95
2023-03-24T08:31:38.795Z,4.10
2023-03-24T08:34:11.954Z,3.85
2023-03-24T08:36:39.390Z,3.83
2023-03-24T08:39:10.462Z,4.55
2023-03-24T08:41:38.275Z,4.35
2023-03-24T08:44:07.182Z,4.68
2023-03-24T08:46:35.239Z,4.20
2023-03-24T08:49:03.106Z,4.60
2023-03-24T08:51:34.099Z,4.28
2023-03-24T08:54:04.142Z,4.80
2023-03-24T08:56:32.237Z,5.35
2023-03-24T08:58:59.646Z,4.47
2023-03-24T09:01:27.619Z,5.15
2023-03-24T09:03:58.948Z,4.88
2023-03-24T09:06:27.605Z,4.45
2023-03-24T09:08:56.186Z,5.50
2023-03-24T09:11:24.259Z,4.85
2023-03-24T09:13:51.708Z,5.15
2023-03-24T09:16:19.571Z,4.97
2023-03-24T09:18:48.145Z,4.82
2023-03-24T09:21:15.806Z,4.95
2023-03-24T09:23:44.925Z,4.57
2023-03-24T09:26:12.475Z,4.90
2023-03-24T09:28:40.105Z,4.43
2023-03-24T09:31:07.785Z,5.13
2023-03-24T09:33:35.919Z,4.53
2023-03-24T09:36:05.585Z,3.80
2023-03-24T09:38:35.829Z,4.78
2023-03-24T09:41:06.134Z,3.92
2023-03-24T09:43:40.720Z,4.50
2023-03-24T09:46:16.908Z,4.50
2023-03-24T09:48:51.568Z,4.57
2023-03-24T09:51:34.890Z,4.70
2023-03-24T09:54:45.293Z,4.32
2023-03-24T09:57:23.945Z,4.80
2023-03-24T09:59:52.095Z,4.18
2023-03-24T10:02:21.802Z,4.85
2023-03-24T10:04:51.110Z,4.43
2023-03-24T10:07:37.970Z,4.80
2023-03-24T10:10:19.907Z,4.32
2023-03-24T10:12:50.125Z,4.00
2023-03-24T10:15:37.945Z,4.50
2023-03-24T10:18:24.331Z,4.70
2023-03-24T10:21:00.718Z,5.03
2023-03-24T10:24:03.033Z,4.63
2023-03-24T10:26:46.480Z,4.50
2023-03-24T10:29:24.943Z,4.43
2023-03-24T10:32:13.178Z,4.00
2023-03-24T10:34:45.750Z,4.00
2023-03-24T10:37:16.672Z,4.55
2023-03-24T10:39:45.506Z,4.20
2023-03-24T10:42:19.949Z,4.40
2023-03-24T10:44:50.510Z,3.95
2023-03-24T10:47:27.171Z,3.60
2023-03-24T10:49:57.075Z,3.90
2023-03-24T10:52:25.793Z,3.35
2023-03-24T10:54:59.902Z,2.88
2023-03-24T10:57:27.949Z,3.63
2023-03-24T11:00:01.064Z,3.25
2023-03-24T11:02:34.787Z,4.32
2023-03-24T11:05:15.984Z,3.92
2023-03-24T11:07:46.944Z,4.28
2023-03-24T11:10:17.814Z,3.80
2023-03-24T11:12:54.574Z,4.50
2023-03-24T11:15:29.475Z,4.13
2023-03-24T11:18:07.631Z,4.20
2023-03-24T11:20:40.999Z,3.80
2023-03-24T11:23:22.365Z,3.65
2023-03-24T11:26:16.864Z,4.18
2023-03-24T11:29:10.390Z,2.97
2023-03-24T11:31:39.749Z,3.55
2023-03-24T11:34:20.634Z,2.83
2023-03-24T11:36:54.802Z,3.05
2023-03-24T11:39:34.869Z,3.22
2023-03-24T11:42:13.113Z,2.97
2023-03-24T11:44:46.723Z,3.10
2023-03-24T11:47:36.802Z,3.05
2023-03-24T11:50:10.985Z,3.10
2023-03-24T11:52:57.968Z,3.05
2023-03-24T11:55:44.019Z,2.60
2023-03-24T11:58:28.528Z,3.13
2023-03-24T12:01:08.682Z,3.03
2023-03-24T12:04:04.717Z,3.30
2023-03-24T12:06:47.747Z,3.17
2023-03-24T12:09:34.667Z,3.03
2023-03-24T12:12:27.149Z,3.15
2023-03-24T12:15:27.160Z,2.40
2023-03-24T12:18:09.062Z,2.83
2023-03-24T12:20:44.921Z,2.60
2023-03-24T12:23:34.587Z,2.80
2023-03-24T12:26:32.503Z,2.63
2023-03-24T12:29:22.272Z,3.10
2023-03-24T12:32:17.946Z,3.08
2023-03-24T12:34:49.142Z,2.53
2023-03-24T12:37:27.049Z,2.63
2023-03-24T12:40:32.403Z,2.47
2023-03-24T12:43:11.844Z,2.13
2023-03-24T12:45:40.204Z,2.63
2023-03-24T12:48:43.336Z,2.47
2023-03-24T12:51:29.891Z,2.50
2023-03-24T12:54:26.269Z,2.33
2023-03-24T12:57:03.919Z,3.00
2023-03-24T12:59:58.353Z,2.97
2023-03-24T13:02:32.174Z,3.00
2023-03-24T13:05:09.374Z,2.70
2023-03-24T13:07:39.593Z,2.60
2023-03-24T13:10:20.749Z,3.00
2023-03-24T13:13:08.911Z,2.83
2023-03-24T13:15:52.679Z,2.92
2023-03-24T13:18:20.017Z,2.70
2023-03-24T13:20:52.819Z,2.80
2023-03-24T13:23:46.518Z,3.17
2023-03-24T13:26:40.138Z,2.90
2023-03-24T13:29:49.149Z,2.92
2023-03-24T13:32:20.781Z,2.30
2023-03-24T13:35:26.734Z,3.03
2023-03-24T13:38:14.649Z,2.67
2023-03-24T13:40:44.383Z,3.25
2023-03-24T13:43:30.715Z,2.47
2023-03-24T13:46:03.638Z,3.15
2023-03-24T13:48:42.539Z,3.17
2023-03-24T13:51:28.030Z,3.28
2023-03-24T13:54:27.554Z,2.53
2023-03-24T13:57:08.165Z,2.80
2023-03-24T13:59:41.941Z,3.55
2023-03-24T14:02:30.133Z,3.22
2023-03-24T14:05:40.774Z,3.38
2023-03-24T14:08:15.149Z,3.20
2023-03-24T14:10:50.779Z,3.78
2023-03-24T14:13:19.388Z,3.33
2023-03-24T14:15:50.738Z,3.47
2023-03-24T14:18:24.833Z,3.88
2023-03-24T14:20:58.737Z,3.50
2023-03-24T14:23:38.742Z,3.30
2023-03-24T14:26:14.683Z,3.40
2023-03-24T14:28:47.730Z,3.45
2023-03-24T14:31:16.867Z,3.50
2023-03-24T14:33:55.771Z,3.63
2023-03-24T14:36:30.999Z,3.55
2023-03-24T14:39:07.646Z,3.50
2023-03-24T14:41:39.656Z,3.17
2023-03-24T14:44:08.516Z,3.30
2023-03-24T14:46:38.689Z,3.65
2023-03-24T14:49:12.313Z,3.40
2023-03-24T14:52:25.041Z,3.13
2023-03-24T14:54:58.989Z,3.27
2023-03-24T14:57:41.636Z,4.25
2023-03-24T15:00:32.090Z,3.50
2023-03-24T15:03:11.998Z,3.20
2023-03-24T15:05:39.646Z,3.88
2023-03-24T15:08:21.732Z,3.92
2023-03-24T15:10:52.966Z,3.97
2023-03-24T15:13:41.911Z,3.55
2023-03-24T15:16:12.715Z,3.45
2023-03-24T15:19:05.515Z,3.40
2023-03-24T15:21:42.392Z,3.88
2023-03-24T15:24:22.661Z,3.63
2023-03-24T15:26:55.844Z,3.40
2023-03-24T15:29:24.266Z,3.95
2023-03-24T15:31:53.629Z,3.47
2023-03-24T15:34:51.265Z,3.97
2023-03-24T15:37:40.677Z,3.65
2023-03-24T15:40:31.886Z,4.20
2023-03-24T15:43:01.961Z,3.50
2023-03-24T15:45:33.341Z,3.85
2023-03-24T15:48:20.347Z,3.70
2023-03-24T15:51:01.172Z,3.92
2023-03-24T15:54:01.675Z,4.47
2023-03-24T15:56:32.019Z,3.65
2023-03-24T15:59:16.005Z,3.63
2023-03-24T16:01:45.476Z,3.75
2023-03-24T16:04:19.817Z,3.70
2023-03-24T16:06:54.396Z,3.88
2023-03-24T16:09:28.161Z,3.90
2023-03-24T16:11:56.219Z,4.43
2023-03-24T16:14:29.207Z,4.30
2023-03-24T16:16:59.347Z,4.05
2023-03-24T16:19:27.544Z,4.70
2023-03-24T16:21:55.865Z,4.10
2023-03-24T16:24:23.734Z,4.57
2023-03-24T16:26:51.281Z,5.50
2023-03-24T16:29:22.336Z,5.00
2023-03-24T16:31:52.174Z,5.25
2023-03-24T16:34:21.332Z,5.28
2023-03-24T16:36:50.263Z,5.85
2023-03-24T16:39:29.259Z,4.97
2023-03-24T16:41:56.948Z,5.03
2023-03-24T16:44:25.016Z,5.40
2023-03-24T16:46:54.186Z,5.10
2023-03-24T16:49:23.108Z,4.78
2023-03-24T16:51:51.162Z,5.32
2023-03-24T16:54:20.108Z,5.13
2023-03-24T16:56:47.660Z,5.55
2023-03-24T16:59:15.894Z,7.03
2023-03-24T17:01:46.362Z,8.30
2023-03-24T17:04:21.390Z,9.05
2023-03-24T17:06:53.587Z,7.15
2023-03-24T17:09:21.792Z,6.50
2023-03-24T17:11:52.424Z,6.45
2023-03-24T17:14:19.822Z,6.60
2023-03-24T17:16:49.454Z,6.43
2023-03-24T17:19:19.476Z,5.30
2023-03-24T17:22:05.098Z,5.65
2023-03-24T17:24:36.921Z,5.40
2023-03-24T17:27:10.469Z,6.18
2023-03-24T17:29:38.024Z,5.32
2023-03-24T17:32:05.899Z,6.75
2023-03-24T17:34:33.097Z,6.15
2023-03-24T17:37:01.062Z,6.43
2023-03-24T17:39:28.220Z,5.60
2023-03-24T17:42:01.348Z,5.63
2023-03-24T17:44:28.767Z,5.50
2023-03-24T17:46:56.213Z,5.75
2023-03-24T17:49:23.605Z,5.05
2023-03-24T17:51:50.737Z,5.60
2023-03-24T17:54:20.595Z,5.63
2023-03-24T17:56:47.589Z,5.15
2023-03-24T17:59:15.023Z,5.38
2023-03-24T18:01:42.327Z,5.20
2023-03-24T18:04:09.642Z,5.05
2023-03-24T18:06:38.780Z,5.20
2023-03-24T18:09:06.910Z,5.65
2023-03-24T18:11:34.111Z,13.10
2023-03-24T18:14:03.584Z,10.55
2023-03-24T18:16:31.258Z,9.00
2023-03-24T18:19:00.713Z,8.85
2023-03-24T18:21:28.835Z,8.50
2023-03-24T18:23:56.720Z,8.82
2023-03-24T18:26:24.058Z,9.93
2023-03-24T18:28:51.784Z,8.68
2023-03-24T18:31:21.565Z,7.35
2023-03-24T18:33:51.280Z,7.40
2023-03-24T18:36:26.656Z,10.15
2023-03-24T18:39:04.551Z,12.55
2023-03-24T18:41:32.680Z,11.90
2023-03-24T18:43:59.931Z,11.57
2023-03-24T18:46:27.743Z,7.53
2023-03-24T18:48:55.717Z,6.78
2023-03-24T18:51:25.697Z,6.50
2023-03-24T18:53:53.290Z,6.32
2023-03-24T18:56:23.504Z,6.15
2023-03-24T18:58:52.544Z,6.45
2023-03-24T19:01:23.250Z,5.72
2023-03-24T19:03:52.066Z,5.20
2023-03-24T19:06:20.021Z,5.05
2023-03-24T19:08:51.861Z,4.78
2023-03-24T19:11:19.544Z,5.75
2023-03-24T19:13:49.993Z,5.00
2023-03-24T19:16:19.448Z,5.22
2023-03-24T19:18:48.788Z,5.95
2023-03-24T19:21:17.277Z,6.13
2023-03-24T19:23:47.023Z,5.53
2023-03-24T19:26:16.757Z,6.32
2023-03-24T19:28:44.493Z,6.80
2023-03-24T19:31:15.376Z,5.93
2023-03-24T19:33:43.099Z,6.95
2023-03-24T19:36:13.517Z,6.30
2023-03-24T19:38:40.753Z,6.22
2023-03-24T19:41:10.797Z,6.88
2023-03-24T19:43:38.286Z,6.60
2023-03-24T19:46:07.279Z,6.53
2023-03-24T19:48:35.183Z,6.25
2023-03-24T19:51:02.869Z,6.35
2023-03-24T19:53:30.126Z,7.45
2023-03-24T19:55:58.517Z,6.20
2023-03-24T19:58:26.263Z,6.82
2023-03-24T20:00:53.973Z,5.82
2023-03-24T20:03:21.536Z,5.63
2023-03-24T20:05:50.379Z,5.82
2023-03-24T20:08:19.376Z,5.72
2023-03-24T20:10:47.217Z,5.38
2023-03-24T20:13:14.588Z,4.60
2023-03-24T20:15:41.920Z,5.05
2023-03-24T20:18:10.693Z,5.30
2023-03-24T20:20:38.257Z,5.57
2023-03-24T20:23:05.670Z,5.45
2023-03-24T20:25:32.878Z,5.47
2023-03-24T20:27:59.954Z,4.85
2023-03-24T20:30:31.587Z,5.00
2023-03-24T20:32:59.105Z,4.13
2023-03-24T20:35:28.412Z,4.70
2023-03-24T20:37:55.586Z,5.00
2023-03-24T20:40:26.685Z,4.65
2023-03-24T20:42:54.320Z,5.15
2023-03-24T20:45:21.633Z,5.40
2023-03-24T20:47:48.934Z,4.95
2023-03-24T20:50:16.379Z,5.00
2023-03-24T20:52:43.396Z,5.78
2023-03-24T20:55:11.747Z,5.50
2023-03-24T20:57:39.176Z,5.85
2023-03-24T21:00:14.413Z,5.53
2023-03-24T21:02:43.145Z,5.38
2023-03-24T21:05:11.240Z,5.50
2023-03-24T21:07:39.150Z,5.35
2023-03-24T21:10:07.044Z,5.82
2023-03-24T21:12:35.047Z,5.22
2023-03-24T21:15:02.566Z,5.28
2023-03-24T21:17:32.921Z,4.95
2023-03-24T21:20:12.843Z,5.93
2023-03-24T21:22:56.006Z,4.65
2023-03-24T21:25:29.135Z,4.55
2023-03-24T21:27:57.724Z,5.18
2023-03-24T21:30:27.372Z,5.78
2023-03-24T21:32:56.785Z,5.57
2023-03-24T21:35:25.552Z,5.95
2023-03-24T21:37:54.063Z,5.22
2023-03-24T21:40:24.229Z,5.50
2023-03-24T21:42:53.435Z,5.18
2023-03-24T21:45:23.587Z,4.38
2023-03-24T21:47:51.550Z,5.55
2023-03-24T21:50:23.529Z,6.32
2023-03-24T21:52:54.853Z,6.60
2023-03-24T21:55:23.248Z,6.88
2023-03-24T21:57:51.292Z,6.97
2023-03-24T22:00:21.611Z,7.32
2023-03-24T22:02:51.424Z,7.32
2023-03-24T22:05:23.730Z,7.93
2023-03-24T22:07:52.877Z,7.57
2023-03-24T22:10:24.797Z,7.05
2023-03-24T22:12:54.007Z,7.72
2023-03-24T22:15:21.798Z,6.85
2023-03-24T22:17:50.602Z,7.32
2023-03-24T22:20:17.893Z,7.20
2023-03-24T22:22:45.724Z,7.15
2023-03-24T22:25:15.687Z,6.35
2023-03-24T22:27:43.238Z,6.00
2023-03-24T22:30:13.045Z,6.13
2023-03-24T22:32:41.350Z,5.93
2023-03-24T22:35:09.348Z,5.65
2023-03-24T22:37:37.009Z,6.00
2023-03-24T22:40:05.959Z,5.47
2023-03-24T22:42:33.448Z,5.13
2023-03-24T22:45:00.761Z,5.32
2023-03-24T22:47:29.187Z,4.97
2023-03-24T22:49:56.979Z,5.43
2023-03-24T22:52:24.370Z,5.90
2023-03-24T22:54:51.620Z,5.38
2023-03-24T22:57:19.264Z,5.43
2023-03-24T22:59:46.455Z,6.25
2023-03-24T23:02:14.092Z,5.63
2023-03-24T23:04:42.542Z,5.68
2023-03-24T23:07:10.382Z,5.85
2023-03-24T23:09:38.848Z,5.30
2023-03-24T23:12:07.160Z,5.38
2023-03-24T23:14:34.848Z,5.97
2023-03-24T23:17:02.350Z,4.95
2023-03-24T23:19:33.446Z,5.47
2023-03-24T23:22:00.987Z,5.15
2023-03-24T23:24:29.141Z,5.65
2023-03-24T23:26:57.082Z,4.90
2023-03-24T23:29:24.303Z,4.97
2023-03-24T23:31:51.619Z,4.93
2023-03-24T23:34:19.338Z,5.57
2023-03-24T23:36:50.758Z,5.38
2023-03-24T23:39:18.489Z,5.82
2023-03-24T23:41:46.869Z,5.45
2023-03-24T23:44:15.103Z,5.00
2023-03-24T23:46:44.961Z,5.63
2023-03-24T23:49:12.091Z,5.32
2023-03-24T23:51:39.239Z,5.32
2023-03-24T23:54:06.476Z,5.00
2023-03-24T23:56:37.187Z,5.28
2023-03-24T23:59:08.330Z,5.93
